createdAt,value
2022-10-30T00:00:34.479Z,83.40
2022-10-30T00:03:03.085Z,83.40
2022-10-30T00:05:31.325Z,83.30
2022-10-30T00:08:00.815Z,83.20
2022-10-30T00:10:29.155Z,83.10
2022-10-30T00:12:57.989Z,83.10
2022-10-30T00:15:27.846Z,83.00
2022-10-30T00:17:56.669Z,83.10
2022-10-30T00:20:24.768Z,83.10
2022-10-30T00:22:52.741Z,83.40
2022-10-30T00:25:20.874Z,83.50
2022-10-30T00:27:51.178Z,83.70
2022-10-30T00:30:22.158Z,83.80
2022-10-30T00:32:51.774Z,84.10
2022-10-30T00:35:19.685Z,84.30
2022-10-30T00:37:47.589Z,83.80
2022-10-30T00:40:18.899Z,83.90
2022-10-30T00:42:46.780Z,83.70
2022-10-30T00:45:15.233Z,83.70
2022-10-30T00:47:44.474Z,83.90
2022-10-30T00:50:15.350Z,84.00
2022-10-30T00:52:49.504Z,84.00
2022-10-30T00:55:19.496Z,83.90
2022-10-30T00:57:51.572Z,83.90
2022-10-30T01:00:20.358Z,83.80
2022-10-30T01:02:48.492Z,83.60
2022-10-30T01:05:19.349Z,83.60
2022-10-30T01:07:48.747Z,83.50
2022-10-30T01:10:16.831Z,83.40
2022-10-30T01:12:48.604Z,83.40
2022-10-30T01:15:17.359Z,83.40
2022-10-30T01:17:54.226Z,83.30
2022-10-30T01:20:34.853Z,83.30
2022-10-30T01:23:14.641Z,83.30
2022-10-30T01:25:51.163Z,83.30
2022-10-30T01:28:27.034Z,83.30
2022-10-30T01:31:04.988Z,83.30
2022-10-30T01:33:39.250Z,83.30
2022-10-30T01:36:13.126Z,83.70
2022-10-30T01:38:45.993Z,83.60
2022-10-30T01:41:15.456Z,83.70
2022-10-30T01:43:46.262Z,83.60
2022-10-30T01:46:23.780Z,83.60
2022-10-30T01:49:01.598Z,83.60
2022-10-30T01:51:36.016Z,83.70
2022-10-30T01:54:09.180Z,83.70
2022-10-30T01:56:39.695Z,83.70
2022-10-30T01:59:11.617Z,83.90
2022-10-30T02:01:40.700Z,83.90
2022-10-30T02:04:09.576Z,83.90
2022-10-30T02:06:39.132Z,84.00
2022-10-30T02:09:07.468Z,84.10
2022-10-30T02:11:36.817Z,84.20
2022-10-30T02:14:06.422Z,83.70
2022-10-30T02:16:37.133Z,83.70
2022-10-30T02:19:06.531Z,83.60
2022-10-30T02:21:35.848Z,83.50
2022-10-30T02:24:05.172Z,83.40
2022-10-30T02:26:33.106Z,83.50
2022-10-30T02:29:02.913Z,83.50
2022-10-30T02:31:33.120Z,83.50
2022-10-30T02:34:01.347Z,83.60
2022-10-30T02:36:29.448Z,83.70
2022-10-30T02:38:59.198Z,83.70
2022-10-30T02:41:28.458Z,83.70
2022-10-30T02:43:57.157Z,83.70
2022-10-30T02:46:25.062Z,83.70
2022-10-30T02:48:52.980Z,83.80
2022-10-30T02:51:21.265Z,84.00
2022-10-30T02:53:50.719Z,84.00
2022-10-30T02:56:20.161Z,83.90
2022-10-30T02:58:48.159Z,83.80
2022-10-30T03:01:17.348Z,83.80
2022-10-30T03:03:46.167Z,83.70
2022-10-30T03:06:15.507Z,83.70
2022-10-30T03:08:43.766Z,83.60
2022-10-30T03:11:13.105Z,83.70
2022-10-30T03:13:42.757Z,83.80
2022-10-30T03:16:12.372Z,83.80
2022-10-30T03:18:40.238Z,83.70
2022-10-30T03:21:11.798Z,83.70
2022-10-30T03:23:39.686Z,83.50
2022-10-30T03:26:07.784Z,83.50
2022-10-30T03:28:48.507Z,83.40
2022-10-30T03:31:17.348Z,83.50
2022-10-30T03:33:45.643Z,83.60
2022-10-30T03:36:14.572Z,83.50
2022-10-30T03:38:42.453Z,83.60
2022-10-30T03:41:12.346Z,83.60
2022-10-30T03:43:43.401Z,83.60
2022-10-30T03:46:14.967Z,83.70
2022-10-30T03:48:42.944Z,83.60
2022-10-30T03:51:13.457Z,83.60
2022-10-30T03:53:43.886Z,83.60
2022-10-30T03:56:11.877Z,83.70
2022-10-30T03:58:46.783Z,83.60
2022-10-30T04:01:21.581Z,83.60
2022-10-30T04:03:56.323Z,83.70
2022-10-30T04:06:26.358Z,83.80
2022-10-30T04:08:57.085Z,83.90
2022-10-30T04:11:25.848Z,83.70
2022-10-30T04:13:53.972Z,83.60
2022-10-30T04:16:24.924Z,83.50
2022-10-30T04:18:52.892Z,83.40
2022-10-30T04:21:21.805Z,83.40
2022-10-30T04:23:50.373Z,83.30
2022-10-30T04:26:21.676Z,83.40
2022-10-30T04:28:52.048Z,83.50
2022-10-30T04:31:21.255Z,83.40
2022-10-30T04:33:51.781Z,83.40
2022-10-30T04:36:24.127Z,83.40
2022-10-30T04:38:52.585Z,83.40
2022-10-30T04:41:22.149Z,83.40
2022-10-30T04:44:00.696Z,83.50
2022-10-30T04:46:34.469Z,83.50
2022-10-30T04:49:13.548Z,83.50
2022-10-30T04:51:42.112Z,83.50
2022-10-30T04:54:11.414Z,83.50
2022-10-30T04:56:39.746Z,83.60
2022-10-30T04:59:09.736Z,83.60
2022-10-30T05:01:43.337Z,83.40
2022-10-30T05:04:34.330Z,83.40
2022-10-30T05:07:05.313Z,83.50
2022-10-30T05:09:33.561Z,83.60
2022-10-30T05:12:01.703Z,83.80
2022-10-30T05:14:40.651Z,83.60
2022-10-30T05:17:09.802Z,83.60
2022-10-30T05:19:38.937Z,83.50
2022-10-30T05:22:11.600Z,83.90
2022-10-30T05:24:39.707Z,84.00
2022-10-30T05:27:07.630Z,84.20
2022-10-30T05:29:37.552Z,84.20
2022-10-30T05:32:05.878Z,84.20
2022-10-30T05:34:40.856Z,84.30
2022-10-30T05:37:13.290Z,83.80
2022-10-30T05:39:41.856Z,83.90
2022-10-30T05:42:18.281Z,84.00
2022-10-30T05:45:00.392Z,84.10
2022-10-30T05:47:31.126Z,84.20
2022-10-30T05:49:59.509Z,84.20
2022-10-30T05:52:29.661Z,84.30
2022-10-30T05:55:00.353Z,84.20
2022-10-30T05:57:59.634Z,84.20
2022-10-30T06:00:30.333Z,84.20
2022-10-30T06:03:02.416Z,84.30
2022-10-30T06:05:33.092Z,84.10
2022-10-30T06:08:04.566Z,83.80
2022-10-30T06:10:36.837Z,83.80
2022-10-30T06:13:15.972Z,83.80
2022-10-30T06:15:49.631Z,83.80
2022-10-30T06:18:17.792Z,83.90
2022-10-30T06:20:49.272Z,83.90
2022-10-30T06:23:48.877Z,83.80
2022-10-30T06:27:05.301Z,83.90
2022-10-30T06:29:33.269Z,83.90
2022-10-30T06:32:05.545Z,84.00
2022-10-30T06:34:34.870Z,84.10
2022-10-30T06:37:04.559Z,84.10
2022-10-30T06:39:34.104Z,84.00
2022-10-30T06:42:20.491Z,83.90
2022-10-30T06:44:58.410Z,83.80
2022-10-30T06:47:26.490Z,83.80
2022-10-30T06:49:54.777Z,83.80
2022-10-30T06:52:23.280Z,83.90
2022-10-30T06:54:55.399Z,84.00
2022-10-30T06:57:41.911Z,84.50
2022-10-30T07:00:31.405Z,85.10
2022-10-30T07:03:18.436Z,85.10
2022-10-30T07:05:47.652Z,84.70
2022-10-30T07:08:16.779Z,84.20
2022-10-30T07:10:46.939Z,84.00
2022-10-30T07:13:43.869Z,83.70
2022-10-30T07:16:26.913Z,83.80
2022-10-30T07:18:58.216Z,83.50
2022-10-30T07:21:28.649Z,83.40
2022-10-30T07:23:57.531Z,83.60
2022-10-30T07:26:37.980Z,83.70
2022-10-30T07:29:22.795Z,83.00
2022-10-30T07:32:12.877Z,81.40
2022-10-30T07:34:53.155Z,80.30
2022-10-30T07:37:40.000Z,78.70
2022-10-30T07:40:13.162Z,77.40
2022-10-30T07:42:58.371Z,75.90
2022-10-30T07:45:42.876Z,73.60
2022-10-30T07:48:29.292Z,72.20
2022-10-30T07:51:03.155Z,70.40
2022-10-30T07:53:31.170Z,68.00
2022-10-30T07:55:59.354Z,68.20
2022-10-30T07:59:00.621Z,68.90
2022-10-30T08:01:46.965Z,68.40
2022-10-30T08:04:29.912Z,68.00
2022-10-30T08:07:06.195Z,66.70
2022-10-30T08:09:34.803Z,65.90
2022-10-30T08:12:03.761Z,67.00
2022-10-30T08:14:34.908Z,65.80
2022-10-30T08:17:05.147Z,66.40
2022-10-30T08:19:33.355Z,67.20
2022-10-30T08:22:02.229Z,65.70
2022-10-30T08:24:34.462Z,65.80
2022-10-30T08:27:02.494Z,65.50
2022-10-30T08:29:30.935Z,64.80
2022-10-30T08:32:01.078Z,64.40
2022-10-30T08:34:47.499Z,62.50
2022-10-30T08:37:18.786Z,60.20
2022-10-30T08:39:47.072Z,58.20
2022-10-30T08:42:34.977Z,56.40
2022-10-30T08:45:08.474Z,55.00
2022-10-30T08:48:01.926Z,53.50
2022-10-30T08:50:31.371Z,53.50
2022-10-30T08:53:02.179Z,54.80
2022-10-30T08:55:30.699Z,55.00
2022-10-30T08:58:02.528Z,54.80
2022-10-30T09:00:31.423Z,54.90
2022-10-30T09:03:21.110Z,55.70
2022-10-30T09:06:07.867Z,54.10
2022-10-30T09:09:01.927Z,53.70
2022-10-30T09:11:41.516Z,52.00
2022-10-30T09:14:09.539Z,51.20
2022-10-30T09:16:37.411Z,51.90
2022-10-30T09:19:06.706Z,52.80
2022-10-30T09:21:34.640Z,51.40
2022-10-30T09:24:02.976Z,52.70
2022-10-30T09:26:37.046Z,53.30
2022-10-30T09:29:27.842Z,51.60
2022-10-30T09:32:08.656Z,50.20
2022-10-30T09:34:43.201Z,49.20
2022-10-30T09:37:19.072Z,48.40
2022-10-30T09:39:50.504Z,48.60
2022-10-30T09:42:37.660Z,47.80
2022-10-30T09:45:28.513Z,48.30
2022-10-30T09:48:04.185Z,48.80
2022-10-30T09:50:50.111Z,47.60
2022-10-30T09:53:23.959Z,45.50
2022-10-30T09:55:53.872Z,44.80
2022-10-30T09:58:25.707Z,45.30
2022-10-30T10:01:00.730Z,44.40
2022-10-30T10:03:39.709Z,44.90
2022-10-30T10:06:28.153Z,46.30
2022-10-30T10:09:07.588Z,46.30
2022-10-30T10:12:13.385Z,45.80
2022-10-30T10:14:43.036Z,46.00
2022-10-30T10:17:13.077Z,44.20
2022-10-30T10:19:43.549Z,43.60
2022-10-30T10:22:21.057Z,43.50
2022-10-30T10:24:49.750Z,42.50
2022-10-30T10:27:24.239Z,41.60
2022-10-30T10:29:58.877Z,41.60
2022-10-30T10:32:45.846Z,41.70
2022-10-30T10:35:29.922Z,41.50
2022-10-30T10:38:05.639Z,40.80
2022-10-30T10:40:40.505Z,40.60
2022-10-30T10:43:12.818Z,40.40
2022-10-30T10:45:45.161Z,39.60
2022-10-30T10:48:18.955Z,39.40
2022-10-30T10:50:49.798Z,38.20
2022-10-30T10:53:23.509Z,38.00
2022-10-30T10:55:53.884Z,38.10
2022-10-30T10:58:31.589Z,38.40
2022-10-30T11:00:59.896Z,38.40
2022-10-30T11:03:31.027Z,38.80
2022-10-30T11:06:01.020Z,39.40
2022-10-30T11:08:30.926Z,38.80
2022-10-30T11:10:59.492Z,39.30
2022-10-30T11:13:29.727Z,40.60
2022-10-30T11:16:00.538Z,40.80
2022-10-30T11:18:28.471Z,40.20
2022-10-30T11:20:58.749Z,39.50
2022-10-30T11:23:35.028Z,38.60
2022-10-30T11:26:03.769Z,39.00
2022-10-30T11:28:41.677Z,38.70
2022-10-30T11:31:20.286Z,37.90
2022-10-30T11:33:49.468Z,37.90
2022-10-30T11:36:18.034Z,37.90
2022-10-30T11:38:47.508Z,38.10
2022-10-30T11:41:15.631Z,38.50
2022-10-30T11:43:44.199Z,38.60
2022-10-30T11:46:14.105Z,38.80
2022-10-30T11:48:45.749Z,39.90
2022-10-30T11:51:14.798Z,41.80
2022-10-30T11:53:48.147Z,43.10
2022-10-30T11:56:18.425Z,44.30
2022-10-30T11:58:47.869Z,45.20
2022-10-30T12:01:18.391Z,46.60
2022-10-30T12:03:46.795Z,47.10
2022-10-30T12:06:18.965Z,48.20
2022-10-30T12:09:04.624Z,48.40
2022-10-30T12:11:34.930Z,48.20
2022-10-30T12:14:03.197Z,48.50
2022-10-30T12:16:31.477Z,48.40
2022-10-30T12:19:03.542Z,49.80
2022-10-30T12:21:40.026Z,50.30
2022-10-30T12:24:13.397Z,50.20
2022-10-30T12:26:46.519Z,50.00
2022-10-30T12:29:16.683Z,50.60
2022-10-30T12:31:47.306Z,50.20
2022-10-30T12:34:30.180Z,49.70
2022-10-30T12:37:04.264Z,50.00
2022-10-30T12:39:36.454Z,49.40
2022-10-30T12:42:08.241Z,48.90
2022-10-30T12:44:37.938Z,47.60
2022-10-30T12:47:09.888Z,47.30
2022-10-30T12:49:41.628Z,46.40
2022-10-30T12:52:12.759Z,46.30
2022-10-30T12:54:43.692Z,45.90
2022-10-30T12:57:14.804Z,46.60
2022-10-30T12:59:47.775Z,46.10
2022-10-30T13:02:22.149Z,46.60
2022-10-30T13:04:52.329Z,46.30
2022-10-30T13:07:23.135Z,46.30
2022-10-30T13:09:55.687Z,46.10
2022-10-30T13:12:28.447Z,45.70
2022-10-30T13:14:59.118Z,45.20
2022-10-30T13:17:28.792Z,45.30
2022-10-30T13:19:56.898Z,45.30
2022-10-30T13:22:26.639Z,45.50
2022-10-30T13:25:02.615Z,45.70
2022-10-30T13:27:41.061Z,45.60
2022-10-30T13:30:12.286Z,45.30
2022-10-30T13:32:45.880Z,46.40
2022-10-30T13:35:23.354Z,46.60
2022-10-30T13:37:54.261Z,47.70
2022-10-30T13:40:25.155Z,49.10
2022-10-30T13:42:59.990Z,49.30
2022-10-30T13:45:38.194Z,49.10
2022-10-30T13:48:11.398Z,49.30
2022-10-30T13:50:48.187Z,49.60
2022-10-30T13:53:21.066Z,49.40
2022-10-30T13:55:49.189Z,49.00
2022-10-30T13:58:22.713Z,49.80
2022-10-30T14:00:58.268Z,49.80
2022-10-30T14:03:30.420Z,50.70
2022-10-30T14:06:03.179Z,51.90
2022-10-30T14:08:34.380Z,52.30
2022-10-30T14:11:03.765Z,52.40
2022-10-30T14:13:46.140Z,53.20
2022-10-30T14:16:28.937Z,54.30
2022-10-30T14:19:03.266Z,54.70
2022-10-30T14:21:33.368Z,55.60
2022-10-30T14:24:05.647Z,55.70
2022-10-30T14:26:33.651Z,56.20
2022-10-30T14:29:22.947Z,57.70
2022-10-30T14:31:51.174Z,58.90
2022-10-30T14:34:33.883Z,60.20
2022-10-30T14:37:01.818Z,60.60
2022-10-30T14:39:31.152Z,60.80
2022-10-30T14:42:07.738Z,60.80
2022-10-30T14:44:54.343Z,61.00
2022-10-30T14:47:33.973Z,61.10
2022-10-30T14:50:04.233Z,61.30
2022-10-30T14:52:37.299Z,61.60
2022-10-30T14:55:23.617Z,62.00
2022-10-30T14:57:53.303Z,62.20
2022-10-30T15:00:42.241Z,62.30
2022-10-30T15:03:14.827Z,61.10
2022-10-30T15:05:45.367Z,61.40
2022-10-30T15:08:21.082Z,62.50
2022-10-30T15:10:52.599Z,62.90
2022-10-30T15:13:21.818Z,64.10
2022-10-30T15:15:59.716Z,64.30
2022-10-30T15:18:30.602Z,65.30
2022-10-30T15:21:03.076Z,66.00
2022-10-30T15:23:32.432Z,66.40
2022-10-30T15:26:06.464Z,67.00
2022-10-30T15:28:37.937Z,67.20
2022-10-30T15:31:08.392Z,67.40
2022-10-30T15:33:39.803Z,67.50
2022-10-30T15:36:17.710Z,67.60
2022-10-30T15:38:45.684Z,68.00
2022-10-30T15:41:13.764Z,68.10
2022-10-30T15:43:42.644Z,68.40
2022-10-30T15:46:14.513Z,68.70
2022-10-30T15:48:46.671Z,68.90
2022-10-30T15:51:16.453Z,69.30
2022-10-30T15:53:46.489Z,69.90
2022-10-30T15:56:19.983Z,69.90
2022-10-30T15:58:50.535Z,70.10
2022-10-30T16:01:26.531Z,70.50
2022-10-30T16:03:55.666Z,71.00
2022-10-30T16:06:25.539Z,71.30
2022-10-30T16:08:53.775Z,71.80
2022-10-30T16:11:22.745Z,72.20
2022-10-30T16:13:51.851Z,72.40
2022-10-30T16:16:22.471Z,72.60
2022-10-30T16:18:52.681Z,72.70
2022-10-30T16:21:23.042Z,73.30
2022-10-30T16:23:53.015Z,73.50
2022-10-30T16:26:26.499Z,73.70
2022-10-30T16:28:54.723Z,73.90
2022-10-30T16:31:24.374Z,74.20
2022-10-30T16:33:53.821Z,74.40
2022-10-30T16:36:26.524Z,74.60
2022-10-30T16:38:55.837Z,75.00
2022-10-30T16:41:26.916Z,75.40
2022-10-30T16:44:19.026Z,75.50
2022-10-30T16:46:51.789Z,75.70
2022-10-30T16:49:23.144Z,75.90
2022-10-30T16:51:54.418Z,76.40
2022-10-30T16:54:25.791Z,76.70
2022-10-30T16:56:55.092Z,76.60
2022-10-30T16:59:26.780Z,77.00
2022-10-30T17:01:56.815Z,77.10
2022-10-30T17:04:26.739Z,77.40
2022-10-30T17:07:03.915Z,77.60
2022-10-30T17:09:35.310Z,77.90
2022-10-30T17:12:07.448Z,78.10
2022-10-30T17:14:48.500Z,78.30
2022-10-30T17:17:38.077Z,78.80
2022-10-30T17:20:13.335Z,78.90
2022-10-30T17:22:41.747Z,78.90
2022-10-30T17:25:17.221Z,79.00
2022-10-30T17:27:50.515Z,79.20
2022-10-30T17:30:32.076Z,79.20
2022-10-30T17:33:00.719Z,79.30
2022-10-30T17:35:31.951Z,79.60
2022-10-30T17:38:02.961Z,79.70
2022-10-30T17:40:31.866Z,79.70
2022-10-30T17:43:00.327Z,79.70
2022-10-30T17:45:30.576Z,79.90
2022-10-30T17:47:59.149Z,79.90
2022-10-30T17:50:27.790Z,80.20
2022-10-30T17:52:57.981Z,80.20
2022-10-30T17:55:29.583Z,80.20
2022-10-30T17:57:58.030Z,80.40
2022-10-30T18:00:26.272Z,80.50
2022-10-30T18:02:54.337Z,80.80
2022-10-30T18:05:23.677Z,80.50
2022-10-30T18:07:51.788Z,80.60
2022-10-30T18:10:21.205Z,80.80
2022-10-30T18:12:49.220Z,80.90
2022-10-30T18:15:39.189Z,81.10
2022-10-30T18:18:07.409Z,81.10
2022-10-30T18:20:35.468Z,81.10
2022-10-30T18:23:04.219Z,81.10
2022-10-30T18:25:35.003Z,81.10
2022-10-30T18:28:03.951Z,81.20
2022-10-30T18:30:31.976Z,81.20
2022-10-30T18:33:00.946Z,81.10
2022-10-30T18:35:31.313Z,81.20
2022-10-30T18:37:59.379Z,81.30
2022-10-30T18:40:27.664Z,81.40
2022-10-30T18:42:57.787Z,81.50
2022-10-30T18:45:27.655Z,81.50
2022-10-30T18:47:56.466Z,81.60
2022-10-30T18:50:25.261Z,81.90
2022-10-30T18:52:54.701Z,81.90
2022-10-30T18:55:24.024Z,81.90
2022-10-30T18:57:52.746Z,81.80
2022-10-30T19:00:25.050Z,81.90
2022-10-30T19:02:53.549Z,81.80
2022-10-30T19:05:26.088Z,81.90
2022-10-30T19:07:54.366Z,82.00
2022-10-30T19:10:22.755Z,82.00
2022-10-30T19:13:10.813Z,82.20
2022-10-30T19:15:43.859Z,82.10
2022-10-30T19:18:12.923Z,82.10
2022-10-30T19:21:03.194Z,82.10
2022-10-30T19:23:29.011Z,82.00
2022-10-30T19:25:57.117Z,82.20
2022-10-30T19:28:25.779Z,82.40
2022-10-30T19:30:55.130Z,82.60
2022-10-30T19:33:24.185Z,82.50
2022-10-30T19:35:55.864Z,82.70
2022-10-30T19:38:24.681Z,82.60
2022-10-30T19:40:53.062Z,82.70
2022-10-30T19:43:23.653Z,82.80
2022-10-30T19:45:58.117Z,82.80
2022-10-30T19:51:16.851Z,82.80
2022-10-30T19:53:46.699Z,82.70
2022-10-30T19:56:17.103Z,82.60
2022-10-30T19:58:45.204Z,82.60
2022-10-30T20:01:16.240Z,82.60
2022-10-30T20:03:44.701Z,82.90
2022-10-30T20:06:13.485Z,82.80
2022-10-30T20:08:42.241Z,82.90
2022-10-30T20:11:10.316Z,82.80
2022-10-30T20:13:38.348Z,82.90
2022-10-30T20:16:06.784Z,82.80
2022-10-30T20:18:37.757Z,82.70
2022-10-30T20:21:08.426Z,82.70
2022-10-30T20:23:36.916Z,82.80
2022-10-30T20:26:06.655Z,83.00
2022-10-30T20:28:36.384Z,83.00
2022-10-30T20:31:04.903Z,83.00
2022-10-30T20:33:32.909Z,83.10
2022-10-30T20:36:02.173Z,83.10
2022-10-30T20:38:33.088Z,82.90
2022-10-30T20:41:02.055Z,83.10
2022-10-30T20:43:31.255Z,83.20
2022-10-30T20:45:59.454Z,83.20
2022-10-30T20:48:27.470Z,83.20
2022-10-30T20:50:56.051Z,82.90
2022-10-30T20:53:25.551Z,82.90
2022-10-30T20:55:53.828Z,82.80
2022-10-30T20:58:21.829Z,82.90
2022-10-30T21:00:49.916Z,82.80
2022-10-30T21:03:18.100Z,82.90
2022-10-30T21:05:46.317Z,82.90
2022-10-30T21:08:15.118Z,83.20
2022-10-30T21:10:44.326Z,83.30
2022-10-30T21:13:13.015Z,83.40
2022-10-30T21:15:42.889Z,83.50
2022-10-30T21:18:11.804Z,83.50
2022-10-30T21:20:41.052Z,83.50
2022-10-30T21:23:09.923Z,83.80
2022-10-30T21:25:37.869Z,84.00
2022-10-30T21:28:07.267Z,83.90
2022-10-30T21:30:35.208Z,83.70
2022-10-30T21:33:03.482Z,83.50
2022-10-30T21:35:31.812Z,83.30
2022-10-30T21:37:59.748Z,83.10
2022-10-30T21:40:27.610Z,83.10
2022-10-30T21:42:58.470Z,83.20
2022-10-30T21:45:30.721Z,83.30
2022-10-30T21:47:58.571Z,83.30
2022-10-30T21:50:43.997Z,83.30
2022-10-30T21:53:11.972Z,83.40
2022-10-30T21:55:40.000Z,83.30
2022-10-30T21:58:08.016Z,83.40
2022-10-30T22:00:37.309Z,83.20
2022-10-30T22:03:05.165Z,83.10
2022-10-30T22:05:35.242Z,83.00
2022-10-30T22:08:03.209Z,83.00
2022-10-30T22:10:31.316Z,83.20
2022-10-30T22:12:59.438Z,83.50
2022-10-30T22:15:27.668Z,83.50
2022-10-30T22:17:57.422Z,83.50
2022-10-30T22:20:25.499Z,83.60
2022-10-30T22:22:55.104Z,83.60
2022-10-30T22:25:24.876Z,83.70
2022-10-30T22:27:53.657Z,83.80
2022-10-30T22:30:21.777Z,83.90
2022-10-30T22:32:50.078Z,83.90
2022-10-30T22:35:19.307Z,83.90
2022-10-30T22:37:47.154Z,83.80
2022-10-30T22:40:15.121Z,83.70
2022-10-30T22:42:43.004Z,83.70
2022-10-30T22:45:11.036Z,83.80
2022-10-30T22:47:39.672Z,83.90
2022-10-30T22:50:07.927Z,83.90
2022-10-30T22:52:37.164Z,83.80
2022-10-30T22:55:05.608Z,83.70
2022-10-30T22:57:33.700Z,83.60
2022-10-30T23:00:01.527Z,83.60
2022-10-30T23:02:29.652Z,83.60
2022-10-30T23:04:59.920Z,83.60
2022-10-30T23:07:30.048Z,83.60
2022-10-30T23:09:59.267Z,83.60
2022-10-30T23:12:27.176Z,83.90
2022-10-30T23:14:55.199Z,84.00
2022-10-30T23:17:23.170Z,84.10
2022-10-30T23:19:52.704Z,84.00
2022-10-30T23:22:20.862Z,84.00
2022-10-30T23:24:49.180Z,84.00
2022-10-30T23:27:18.926Z,84.10
2022-10-30T23:29:48.255Z,84.00
2022-10-30T23:32:16.683Z,84.00
2022-10-30T23:34:44.554Z,83.80
2022-10-30T23:37:15.311Z,83.80
2022-10-30T23:39:43.263Z,83.80
2022-10-30T23:42:11.273Z,83.90
2022-10-30T23:44:43.257Z,83.80
2022-10-30T23:47:11.436Z,83.90
2022-10-30T23:49:39.269Z,83.80
2022-10-30T23:52:07.112Z,83.80
2022-10-30T23:54:34.917Z,83.60
2022-10-30T23:57:02.775Z,83.80
2022-10-30T23:59:30.751Z,83.80
